Time;durP1;ratioP1;P1;durP2;ratioP2;P2;SDS_P1;SDS_P2;PMS_P1;PMS_P2;Temp;Humidity;BMP_temperature;BMP_pressure;BME280_temperature;BME280_humidity;BME280_pressure;Samples;Min_cycle;Max_cycle;Signal;HPM_P1;HPM_P2
2023/11/03 00:04:53;;;;;;;2.65;0.50;;;;;;;10.61;68.42;97394.78;10394650;28;20116;-64
2023/11/03 00:10:00;;;;;;;2.42;0.40;;;;;;;10.62;68.23;97382.97;10396198;28;20122;-66
2023/11/03 00:15:02;;;;;;;2.95;0.50;;;;;;;10.50;68.75;97372.34;10398813;28;20073;-65
2023/11/03 00:20:06;;;;;;;5.53;0.28;;;;;;;10.53;68.54;97371.84;10438140;28;20045;-64
2023/11/03 00:25:13;;;;;;;3.33;0.20;;;;;;;10.52;68.57;97373.75;10437660;28;20140;-64
2023/11/03 00:30:14;;;;;;;2.53;0.32;;;;;;;10.66;68.75;97378.72;10434348;28;20055;-66
2023/11/03 00:35:16;;;;;;;2.75;0.30;;;;;;;10.69;68.51;97362.09;10422837;28;20132;-65
2023/11/03 00:40:18;;;;;;;1.67;0.40;;;;;;;10.73;68.25;97349.78;10436399;28;20052;-64
2023/11/03 00:45:19;;;;;;;2.00;0.10;;;;;;;10.73;68.71;97347.13;10434530;28;20044;-67
2023/11/03 00:50:22;;;;;;;3.35;0.35;;;;;;;10.79;68.21;97327.28;10419867;28;20136;-65
2023/11/03 00:55:23;;;;;;;3.35;0.30;;;;;;;10.83;67.88;97328.41;10435108;28;20056;-65
2023/11/03 01:00:25;;;;;;;7.43;0.30;;;;;;;10.76;68.34;97327.78;10441302;28;20059;-65
2023/11/03 01:05:27;;;;;;;3.33;0.30;;;;;;;10.79;68.41;97329.19;10443625;28;20064;-66
2023/11/03 01:10:29;;;;;;;3.30;0.85;;;;;;;10.91;67.92;97329.84;10444577;28;20041;-66
2023/11/03 01:15:30;;;;;;;0.75;0.40;;;;;;;10.93;68.12;97332.28;10443177;28;20143;-65
2023/11/03 01:20:31;;;;;;;5.07;0.30;;;;;;;10.93;67.87;97324.22;10429590;28;20052;-66
2023/11/03 01:25:33;;;;;;;3.13;0.38;;;;;;;10.89;67.77;97332.78;10443139;28;20052;-65
2023/11/03 01:30:34;;;;;;;2.25;0.20;;;;;;;10.92;67.98;97342.22;10444616;28;20514;-66
2023/11/03 01:35:36;;;;;;;1.30;0.20;;;;;;;11.04;68.02;97337.50;10443453;28;20053;-66
2023/11/03 01:40:38;;;;;;;2.80;0.30;;;;;;;11.06;67.96;97348.81;10443686;28;20048;-64
2023/11/03 01:45:40;;;;;;;3.13;0.50;;;;;;;11.10;67.89;97349.13;10425356;28;20041;-66
2023/11/03 01:50:42;;;;;;;1.52;0.30;;;;;;;11.15;67.54;97362.59;10444923;28;20633;-66
2023/11/03 01:55:44;;;;;;;2.75;0.32;;;;;;;11.18;67.63;97359.41;10425479;28;20156;-65
2023/11/03 02:00:46;;;;;;;1.92;0.30;;;;;;;11.14;67.70;97365.53;10442473;28;20052;-65
2023/11/03 02:05:47;;;;;;;4.15;0.30;;;;;;;11.20;67.28;97359.16;10440736;28;20538;-65
2023/11/03 02:10:48;;;;;;;5.07;0.70;;;;;;;11.25;67.03;97362.69;10440597;28;20516;-65
2023/11/03 02:15:50;;;;;;;3.45;0.30;;;;;;;11.27;67.43;97368.63;10438041;28;20064;-66
2023/11/03 02:20:51;;;;;;;2.15;0.63;;;;;;;11.17;67.57;97376.59;10442702;28;20063;-64
2023/11/03 02:25:53;;;;;;;2.05;0.30;;;;;;;11.19;67.53;97377.16;10427754;28;20041;-64
2023/11/03 02:30:54;;;;;;;7.03;0.50;;;;;;;11.22;67.28;97365.09;10441213;28;20048;-66
2023/11/03 02:35:55;;;;;;;1.30;0.60;;;;;;;11.22;67.42;97354.34;10423592;28;20500;-66
2023/11/03 02:40:57;;;;;;;4.32;0.32;;;;;;;11.17;67.15;97367.72;10440463;28;20400;-64
2023/11/03 02:45:59;;;;;;;3.38;0.50;;;;;;;11.12;67.63;97376.56;10441969;28;20434;-66
2023/11/03 02:51:03;;;;;;;3.45;0.60;;;;;;;11.07;67.66;97373.81;10440416;28;20048;-66
2023/11/03 02:56:04;;;;;;;1.40;0.30;;;;;;;11.08;67.25;97372.75;10438760;28;20037;-66
2023/11/03 03:01:07;;;;;;;0.77;0.20;;;;;;;11.08;67.37;97384.31;10440579;28;20140;-66
2023/11/03 03:06:09;;;;;;;2.35;0.13;;;;;;;11.10;67.66;97389.44;10421319;28;20438;-66
2023/11/03 03:11:11;;;;;;;2.25;0.50;;;;;;;11.13;67.52;97386.25;10436675;28;20126;-65
2023/11/03 03:16:16;;;;;;;4.80;0.30;;;;;;;11.13;67.02;97385.44;10439917;28;20513;-66
2023/11/03 03:21:18;;;;;;;8.60;1.80;;;;;;;11.16;67.16;97379.53;10439177;28;20055;-64
2023/11/03 03:26:19;;;;;;;1.73;0.30;;;;;;;11.02;67.62;97377.28;10439070;28;20045;-65
2023/11/03 03:31:21;;;;;;;1.48;0.45;;;;;;;11.01;67.74;97381.00;10438885;28;20055;-66
2023/11/03 03:36:22;;;;;;;4.72;0.50;;;;;;;11.08;67.63;97384.31;10439206;28;20068;-63
2023/11/03 03:41:24;;;;;;;3.70;0.57;;;;;;;11.16;67.40;97384.91;10421708;28;20072;-63
2023/11/03 03:46:25;;;;;;;7.57;0.20;;;;;;;11.20;66.89;97386.06;10438900;28;20041;-66
2023/11/03 03:51:27;;;;;;;4.68;0.50;;;;;;;11.20;67.44;97389.56;10420185;28;20051;-67
2023/11/03 03:56:28;;;;;;;1.48;0.30;;;;;;;11.25;67.13;97400.34;10437574;28;20045;-65
2023/11/03 04:01:30;;;;;;;2.95;0.20;;;;;;;11.24;67.52;97404.09;10438112;28;20144;-65
2023/11/03 04:06:33;;;;;;;2.85;0.30;;;;;;;11.27;66.61;97411.66;10416137;28;20560;-66
2023/11/03 04:11:34;;;;;;;5.97;0.30;;;;;;;11.37;66.35;97410.94;10437251;28;20052;-66
2023/11/03 04:16:36;;;;;;;2.80;0.30;;;;;;;11.36;66.86;97409.34;10400955;28;20056;-65
2023/11/03 04:21:37;;;;;;;5.53;0.30;;;;;;;11.40;66.14;97415.03;10395066;28;20413;-66
2023/11/03 04:26:39;;;;;;;3.78;0.32;;;;;;;11.36;66.50;97425.47;10401025;28;20053;-66
2023/11/03 04:31:41;;;;;;;3.97;0.32;;;;;;;11.37;66.49;97426.28;10402606;28;20050;-66
2023/11/03 04:36:43;;;;;;;0.85;0.30;;;;;;;11.29;66.37;97416.78;10396256;28;20156;-64
2023/11/03 04:41:44;;;;;;;2.38;0.20;;;;;;;11.30;66.52;97421.13;10382326;28;20056;-65
2023/11/03 04:46:45;;;;;;;3.38;0.60;;;;;;;11.32;66.02;97416.28;10399286;28;20048;-65
2023/11/03 04:51:49;;;;;;;0.98;0.28;;;;;;;11.33;66.43;97404.44;10401255;28;20057;-65
2023/11/03 04:56:50;;;;;;;2.92;0.50;;;;;;;11.33;66.20;97391.00;10398516;28;20450;-65
2023/11/03 05:01:54;;;;;;;5.50;0.45;;;;;;;11.37;65.98;97386.75;10400204;28;20393;-65
2023/11/03 05:06:56;;;;;;;3.50;0.63;;;;;;;11.45;65.84;97396.22;10399041;28;20041;-65
2023/11/03 05:11:57;;;;;;;1.75;0.30;;;;;;;11.50;65.91;97391.72;10402032;28;20041;-65
2023/11/03 05:16:59;;;;;;;2.78;0.30;;;;;;;11.61;65.23;97386.41;10400571;28;20044;-65
2023/11/03 05:22:01;;;;;;;4.57;0.30;;;;;;;11.56;65.45;97384.50;10393694;28;20041;-67
2023/11/03 05:27:03;;;;;;;5.85;0.22;;;;;;;11.53;65.53;97371.56;10395144;28;20040;-66
2023/11/03 05:32:04;;;;;;;1.15;0.63;;;;;;;11.51;65.28;97377.22;10401956;28;20038;-66
2023/11/03 05:37:06;;;;;;;1.60;0.20;;;;;;;11.55;65.40;97369.41;10393804;28;20059;-65
2023/11/03 05:42:08;;;;;;;3.83;0.30;;;;;;;11.55;65.30;97369.41;10396188;28;20155;-66
2023/11/03 05:47:10;;;;;;;4.07;0.50;;;;;;;11.57;65.64;97393.38;10404104;28;20476;-65
2023/11/03 05:52:12;;;;;;;3.78;0.90;;;;;;;11.61;65.01;97419.53;10407080;28;20396;-62
2023/11/03 05:57:13;;;;;;;5.13;0.40;;;;;;;11.61;65.31;97422.22;10406117;28;20049;-64
2023/11/03 06:02:15;;;;;;;2.00;0.30;;;;;;;11.65;65.10;97417.13;10402314;28;20048;-65
2023/11/03 06:07:17;;;;;;;3.50;0.30;;;;;;;11.54;65.68;97418.94;10397047;28;20047;-64
2023/11/03 06:12:18;;;;;;;4.45;0.50;;;;;;;11.49;65.22;97430.47;10407481;28;20042;-64
2023/11/03 06:17:20;;;;;;;2.97;0.40;;;;;;;11.45;65.45;97447.34;10439862;28;20037;-63
2023/11/03 06:22:22;;;;;;;1.50;0.68;;;;;;;11.46;65.68;97448.97;10440675;28;20052;-62
2023/11/03 06:27:24;;;;;;;7.93;0.30;;;;;;;11.31;65.93;97458.50;10438390;28;20057;-62
2023/11/03 06:32:25;;;;;;;3.35;0.25;;;;;;;11.24;65.90;97474.03;10438923;28;20852;-63
2023/11/03 06:37:27;;;;;;;5.43;0.30;;;;;;;11.23;66.08;97468.88;10432761;28;20033;-62
2023/11/03 06:42:28;;;;;;;1.60;0.20;;;;;;;11.23;65.82;97477.75;10422945;28;20072;-62
2023/11/03 06:47:30;;;;;;;3.08;0.50;;;;;;;11.27;65.42;97476.19;10439382;28;20048;-64
2023/11/03 06:52:31;;;;;;;2.58;0.30;;;;;;;11.28;65.66;97493.97;10440476;28;20052;-62
2023/11/03 06:57:33;;;;;;;1.15;0.20;;;;;;;11.30;65.34;97507.97;10437432;28;20049;-62
2023/11/03 07:02:35;;;;;;;3.28;0.30;;;;;;;11.26;66.00;97509.53;10438582;28;20041;-62
2023/11/03 07:07:37;;;;;;;4.93;0.35;;;;;;;11.27;65.58;97516.53;10433590;28;20052;-59
2023/11/03 07:12:39;;;;;;;3.13;0.28;;;;;;;11.43;65.43;97514.84;10438801;28;20464;-62
2023/11/03 07:17:41;;;;;;;3.00;0.22;;;;;;;11.38;65.56;97525.53;10438655;28;20071;-62
2023/11/03 07:22:42;;;;;;;6.03;0.57;;;;;;;11.32;65.89;97521.97;10437757;28;20045;-62
2023/11/03 07:27:45;;;;;;;4.57;0.60;;;;;;;11.28;65.67;97536.19;10437279;28;20041;-62
2023/11/03 07:32:47;;;;;;;1.73;0.30;;;;;;;11.19;65.85;97534.97;10438346;28;20068;-62
2023/11/03 07:37:49;;;;;;;1.80;0.20;;;;;;;11.27;65.86;97538.03;10434739;28;20132;-62
2023/11/03 07:42:50;;;;;;;6.28;0.50;;;;;;;11.35;65.47;97549.44;10420435;28;20077;-62
2023/11/03 07:47:52;;;;;;;3.75;0.73;;;;;;;11.36;65.38;97553.75;10438543;28;20045;-62
2023/11/03 07:52:54;;;;;;;1.55;0.20;;;;;;;11.40;65.20;97574.50;10439320;28;20044;-62
2023/11/03 07:57:55;;;;;;;4.32;0.70;;;;;;;11.27;65.84;97574.88;10419324;28;20163;-61
2023/11/03 08:02:59;;;;;;;4.63;0.30;;;;;;;11.38;65.56;97576.66;10438361;28;20087;-61
2023/11/03 08:08:04;;;;;;;8.45;0.40;;;;;;;11.40;65.52;97579.09;10435707;28;20072;-61
2023/11/03 08:13:06;;;;;;;3.05;0.32;;;;;;;11.38;65.63;97595.47;10435999;28;20156;-62
2023/11/03 08:18:07;;;;;;;3.35;0.52;;;;;;;11.51;65.74;97607.72;10435667;28;20060;-62
2023/11/03 08:23:14;;;;;;;7.07;0.30;;;;;;;11.64;65.38;97615.44;10439960;28;20049;-62
2023/11/03 08:28:15;;;;;;;5.22;0.82;;;;;;;11.68;65.12;97616.56;10432754;28;20388;-63
2023/11/03 08:33:17;;;;;;;3.20;0.82;;;;;;;11.73;65.44;97620.38;10435707;28;20143;-62
2023/11/03 08:38:18;;;;;;;4.05;0.38;;;;;;;11.76;65.27;97619.88;10435677;28;20061;-63
2023/11/03 08:43:20;;;;;;;3.92;0.35;;;;;;;11.68;65.43;97627.31;10434985;28;20040;-62
2023/11/03 08:48:23;;;;;;;3.53;1.05;;;;;;;11.79;65.23;97630.97;10434532;28;20051;-62
2023/11/03 08:53:25;;;;;;;7.68;0.40;;;;;;;11.72;65.18;97622.25;10436235;28;20045;-62
2023/11/03 08:58:27;;;;;;;4.18;0.32;;;;;;;11.83;64.96;97636.66;10451689;28;20044;-62
2023/11/03 09:03:30;;;;;;;2.60;0.75;;;;;;;11.83;65.04;97626.69;10434439;28;20545;-62
2023/11/03 09:08:33;;;;;;;3.00;0.50;;;;;;;11.85;65.25;97624.56;10434559;28;20076;-62
2023/11/03 09:13:50;;;;;;;7.47;1.15;;;;;;;11.93;64.79;97619.81;10430356;28;20060;-62
2023/11/03 09:18:52;;;;;;;3.25;1.50;;;;;;;11.93;65.04;97619.81;10402116;28;20057;-62
2023/11/03 09:23:54;;;;;;;5.35;0.40;;;;;;;11.94;64.76;97626.84;10406644;28;20642;-61
2023/11/03 09:28:56;;;;;;;4.22;0.95;;;;;;;11.89;64.65;97627.59;10407461;28;20061;-62
2023/11/03 09:33:59;;;;;;;7.88;0.40;;;;;;;11.95;64.86;97629.28;10409469;28;20383;-61
2023/11/03 09:39:00;;;;;;;4.20;0.50;;;;;;;11.91;64.69;97620.09;10402189;28;20132;-62
2023/11/03 09:44:02;;;;;;;2.78;0.40;;;;;;;11.90;64.56;97630.03;10413767;28;20064;-61
2023/11/03 09:49:04;;;;;;;4.70;0.60;;;;;;;11.91;64.64;97638.94;10409065;28;20055;-62
2023/11/03 09:54:06;;;;;;;1.52;0.30;;;;;;;12.03;64.54;97622.66;10403151;28;20049;-60
2023/11/03 09:59:07;;;;;;;3.60;0.65;;;;;;;12.12;64.34;97626.50;10409998;28;20052;-60
2023/11/03 10:04:09;;;;;;;1.08;0.40;;;;;;;12.24;64.00;97624.47;10404802;28;20411;-60
2023/11/03 10:09:16;;;;;;;2.78;0.30;;;;;;;12.25;63.86;97620.72;10410248;28;20152;-60
2023/11/03 10:14:17;;;;;;;1.80;0.30;;;;;;;12.47;63.77;97628.72;10410140;28;20417;-60
2023/11/03 10:19:19;;;;;;;3.45;0.20;;;;;;;12.52;63.69;97633.38;10410283;28;20047;-61
2023/11/03 10:24:22;;;;;;;3.30;0.28;;;;;;;12.59;63.19;97627.75;10403551;28;20679;-60
2023/11/03 10:29:24;;;;;;;3.40;0.30;;;;;;;12.56;63.49;97629.09;10407657;28;20048;-61
2023/11/03 10:34:27;;;;;;;3.35;0.30;;;;;;;12.45;63.44;97636.25;10401381;28;20604;-60
2023/11/03 10:39:30;;;;;;;3.72;0.40;;;;;;;12.66;63.05;97639.16;10406507;28;20128;-60
2023/11/03 10:44:32;;;;;;;3.17;1.20;;;;;;;12.77;62.98;97645.41;10407989;28;20048;-60
2023/11/03 10:49:40;;;;;;;3.20;0.43;;;;;;;12.82;62.56;97651.66;10385853;28;20399;-60
2023/11/03 10:55:14;;;;;;;5.22;0.43;;;;;;;12.86;62.77;97654.66;10408346;28;20040;-60
2023/11/03 11:00:20;;;;;;;3.63;0.40;;;;;;;12.92;62.42;97653.63;10367331;28;20045;-60
2023/11/03 11:06:11;;;;;;;2.75;0.35;;;;;;;12.76;62.48;97636.53;10396506;28;20044;-60
2023/11/03 11:11:13;;;;;;;2.35;0.30;;;;;;;12.94;61.86;97623.72;10362061;28;20496;-60
2023/11/03 11:16:18;;;;;;;3.10;0.77;;;;;;;12.78;62.21;97623.59;10432160;28;20052;-60
2023/11/03 11:21:38;;;;;;;3.13;0.40;;;;;;;12.99;61.58;97629.13;10439536;28;20045;-60
2023/11/03 11:26:40;;;;;;;3.70;0.30;;;;;;;13.03;61.75;97641.03;10438312;28;20411;-60
2023/11/03 11:31:42;;;;;;;2.42;0.40;;;;;;;13.22;61.30;97628.75;10440298;28;20431;-60
2023/11/03 11:36:47;;;;;;;3.08;0.20;;;;;;;13.35;60.93;97630.22;10440010;28;20059;-59
2023/11/03 11:41:55;;;;;;;1.33;0.22;;;;;;;13.42;60.65;97633.47;10438135;28;20149;-60
2023/11/03 11:46:59;;;;;;;2.05;0.60;;;;;;;13.35;60.68;97627.53;10409493;28;20045;-60
2023/11/03 11:52:00;;;;;;;3.15;0.30;;;;;;;13.56;59.99;97633.81;10438322;28;20654;-60
2023/11/03 11:57:03;;;;;;;5.18;1.15;;;;;;;13.55;59.91;97634.91;10438665;28;20047;-60
2023/11/03 12:02:04;;;;;;;1.83;0.30;;;;;;;13.51;59.36;97628.41;10439546;28;20040;-60
2023/11/03 12:07:06;;;;;;;2.58;1.00;;;;;;;13.46;59.15;97631.09;10436390;28;20052;-60
2023/11/03 12:12:08;;;;;;;4.47;0.32;;;;;;;13.45;59.15;97622.19;10437486;28;20053;-60
2023/11/03 12:17:11;;;;;;;4.07;0.40;;;;;;;13.52;58.92;97630.03;10398579;28;20076;-60
2023/11/03 12:22:26;;;;;;;3.78;0.28;;;;;;;13.61;58.68;97636.56;10401272;28;20045;-60
2023/11/03 12:27:27;;;;;;;1.05;0.32;;;;;;;13.61;58.14;97635.75;10396470;28;20045;-60
2023/11/03 12:32:33;;;;;;;2.60;0.32;;;;;;;13.69;58.06;97638.75;10388422;28;20053;-61
2023/11/03 12:37:40;;;;;;;1.65;0.30;;;;;;;13.65;57.79;97644.94;10399118;28;20045;-61
2023/11/03 12:42:42;;;;;;;1.65;0.20;;;;;;;13.64;57.49;97641.41;10336858;28;21048;-60
2023/11/03 12:47:50;;;;;;;1.75;0.43;;;;;;;13.78;57.16;97646.34;10335430;28;20042;-60
2023/11/03 12:53:03;;;;;;;2.75;0.30;;;;;;;13.98;57.04;97646.44;10397877;28;20065;-60
2023/11/03 12:58:09;;;;;;;2.20;0.30;;;;;;;13.89;56.85;97643.41;10403067;28;20483;-60
2023/11/03 13:03:13;;;;;;;7.00;0.40;;;;;;;14.01;56.82;97635.09;10397378;28;20136;-61
2023/11/03 13:08:17;;;;;;;1.88;0.28;;;;;;;13.90;56.72;97646.94;10377941;28;20129;-61
2023/11/03 13:13:18;;;;;;;3.63;0.20;;;;;;;13.77;56.97;97652.84;10388743;28;20417;-60
2023/11/03 13:18:21;;;;;;;5.75;0.30;;;;;;;13.86;56.79;97643.13;10422296;28;20053;-61
2023/11/03 13:23:23;;;;;;;2.63;0.40;;;;;;;13.88;56.56;97646.38;10398249;28;20049;-61
2023/11/03 13:28:25;;;;;;;4.25;1.45;;;;;;;13.88;56.47;97649.06;10424692;28;20397;-60
2023/11/03 13:33:29;;;;;;;4.07;0.40;;;;;;;13.85;56.25;97657.72;10428120;28;20044;-60
2023/11/03 13:38:31;;;;;;;3.45;0.50;;;;;;;13.90;55.76;97660.44;10411634;28;20047;-60
2023/11/03 13:43:34;;;;;;;3.85;0.30;;;;;;;14.08;55.29;97659.97;10411798;28;20044;-60
2023/11/03 13:48:35;;;;;;;1.98;0.20;;;;;;;14.07;54.79;97668.34;10422184;28;20056;-60
2023/11/03 13:53:37;;;;;;;2.80;0.30;;;;;;;14.24;54.55;97677.03;10424043;28;20133;-61
2023/11/03 13:58:38;;;;;;;2.67;0.65;;;;;;;14.13;54.49;97688.09;10393510;28;20592;-60
2023/11/03 14:03:40;;;;;;;4.07;0.25;;;;;;;14.12;54.48;97689.13;10426293;28;20069;-60
2023/11/03 14:08:41;;;;;;;10.15;1.30;;;;;;;14.14;54.51;97689.69;10424994;28;20119;-60
2023/11/03 14:13:43;;;;;;;3.45;0.20;;;;;;;14.12;54.59;97689.13;10430813;28;20071;-60
2023/11/03 14:18:45;;;;;;;4.28;0.32;;;;;;;14.00;54.84;97705.56;10421804;28;20117;-60
2023/11/03 14:23:47;;;;;;;4.28;0.40;;;;;;;14.06;54.86;97702.66;10417477;28;20053;-61
2023/11/03 14:28:52;;;;;;;5.50;1.50;;;;;;;13.88;55.38;97717.44;10422570;28;20487;-59
2023/11/03 14:33:53;;;;;;;3.65;0.35;;;;;;;13.90;55.56;97717.13;10432833;28;20488;-60
2023/11/03 14:38:55;;;;;;;2.25;0.50;;;;;;;13.73;55.77;97725.44;10418366;28;20037;-59
2023/11/03 14:43:56;;;;;;;2.72;0.40;;;;;;;13.49;56.19;97744.72;10422325;28;20041;-60
2023/11/03 14:48:58;;;;;;;3.85;0.45;;;;;;;13.45;56.40;97750.91;10420496;28;20052;-61
2023/11/03 14:54:01;;;;;;;6.78;0.52;;;;;;;13.33;56.44;97755.66;10414069;28;20051;-61
2023/11/03 14:59:03;;;;;;;8.07;0.40;;;;;;;13.14;56.12;97757.91;10418504;28;20044;-60
2023/11/03 15:04:04;;;;;;;1.70;0.20;;;;;;;13.08;56.70;97762.44;10414435;28;20041;-61
2023/11/03 15:09:06;;;;;;;3.97;0.40;;;;;;;13.08;57.09;97763.25;10417838;28;20128;-57
2023/11/03 15:14:09;;;;;;;1.95;0.50;;;;;;;13.04;57.12;97770.22;10413258;28;20054;-57
2023/11/03 15:19:10;;;;;;;6.05;0.45;;;;;;;12.94;57.42;97772.84;10397134;28;20064;-61
2023/11/03 15:24:12;;;;;;;5.20;0.45;;;;;;;12.92;57.21;97774.16;10391103;28;20159;-60
2023/11/03 15:29:14;;;;;;;3.53;0.63;;;;;;;12.81;57.63;97784.81;10387663;28;20069;-61
2023/11/03 15:34:15;;;;;;;1.52;0.50;;;;;;;12.78;57.97;97789.94;10387495;28;20045;-60
2023/11/03 15:39:32;;;;;;;1.85;0.35;;;;;;;12.67;57.92;97789.78;10396689;28;20046;-61
2023/11/03 15:44:34;;;;;;;3.67;0.38;;;;;;;12.55;58.33;97796.41;10383511;28;20053;-61
2023/11/03 15:49:36;;;;;;;6.53;0.65;;;;;;;12.49;58.25;97807.13;10404904;28;20037;-60
2023/11/03 15:54:37;;;;;;;7.90;0.30;;;;;;;12.35;58.38;97816.66;10375991;28;20060;-60
2023/11/03 15:59:38;;;;;;;4.22;0.57;;;;;;;12.40;58.35;97823.97;10387590;28;20487;-61
2023/11/03 16:04:40;;;;;;;4.90;0.70;;;;;;;12.40;58.25;97818.56;10387723;28;20435;-66
2023/11/03 16:09:42;;;;;;;6.78;0.80;;;;;;;12.31;58.69;97818.22;10390727;28;20108;-64
2023/11/03 16:14:43;;;;;;;6.43;0.80;;;;;;;12.17;59.01;97833.13;10396223;28;20132;-66
2023/11/03 16:19:45;;;;;;;3.70;0.70;;;;;;;12.09;59.10;97848.63;10378595;28;20108;-64
2023/11/03 16:24:47;;;;;;;2.97;0.85;;;;;;;11.99;59.18;97845.78;10394377;28;20049;-64
2023/11/03 16:29:48;;;;;;;14.73;0.63;;;;;;;11.82;59.84;97855.72;10382632;28;20048;-65
2023/11/03 16:34:51;;;;;;;7.72;0.70;;;;;;;11.74;60.31;97859.63;10341621;28;20713;-66
2023/11/03 16:39:53;;;;;;;3.58;0.60;;;;;;;11.68;60.17;97860.63;10350910;28;20144;-66
2023/11/03 16:44:55;;;;;;;4.70;1.13;;;;;;;11.62;60.66;97870.47;10361260;28;20056;-67
2023/11/03 16:49:57;;;;;;;15.73;1.10;;;;;;;11.61;60.51;97866.19;10340758;28;20034;-66
2023/11/03 16:55:00;;;;;;;4.32;0.60;;;;;;;11.59;60.02;97873.69;10355110;28;20050;-66
2023/11/03 17:00:06;;;;;;;7.35;0.85;;;;;;;11.58;60.54;97872.03;10338788;28;20049;-65
2023/11/03 17:05:08;;;;;;;5.95;0.50;;;;;;;11.55;60.49;97874.38;10358453;28;20139;-63
2023/11/03 17:10:10;;;;;;;5.43;0.98;;;;;;;11.39;60.93;97884.06;10359347;28;20137;-63
2023/11/03 17:15:14;;;;;;;5.55;1.58;;;;;;;11.34;61.00;97886.69;10353423;28;20116;-63
2023/11/03 17:20:16;;;;;;;1.40;0.60;;;;;;;11.19;61.33;97885.34;10426543;28;20041;-62
2023/11/03 17:25:17;;;;;;;7.28;0.93;;;;;;;11.12;61.38;97884.69;10430501;28;20867;-63
2023/11/03 17:30:19;;;;;;;7.18;0.80;;;;;;;11.00;62.59;97878.53;10430135;28;20052;-62
2023/11/03 17:35:23;;;;;;;8.32;0.95;;;;;;;10.88;62.25;97876.72;10412245;28;20819;-65
2023/11/03 17:40:28;;;;;;;7.85;1.15;;;;;;;10.82;62.50;97883.03;10415225;28;20381;-65
2023/11/03 17:45:32;;;;;;;5.68;0.80;;;;;;;10.73;62.96;97889.84;10444035;28;20041;-65
2023/11/03 17:50:34;;;;;;;15.43;2.30;;;;;;;10.75;62.71;97882.34;10443801;28;20120;-64
2023/11/03 17:55:36;;;;;;;9.02;1.10;;;;;;;10.67;62.95;97890.78;10451409;28;20399;-66
2023/11/03 18:00:38;;;;;;;6.03;0.93;;;;;;;10.60;62.75;97896.28;10454817;28;20447;-65
2023/11/03 18:05:41;;;;;;;4.75;1.13;;;;;;;10.52;63.12;97894.81;10454576;28;20084;-65
2023/11/03 18:10:42;;;;;;;5.25;1.70;;;;;;;10.40;63.22;97893.97;10421602;28;20049;-65
2023/11/03 18:15:44;;;;;;;7.55;1.10;;;;;;;10.34;63.65;97892.25;10435695;28;20049;-65
2023/11/03 18:20:45;;;;;;;5.75;1.67;;;;;;;10.33;64.05;97898.69;10453073;28;20542;-67
2023/11/03 18:25:47;;;;;;;3.50;1.17;;;;;;;10.21;64.13;97895.97;10452644;28;20051;-67
2023/11/03 18:30:48;;;;;;;7.03;1.77;;;;;;;10.24;64.44;97905.41;10444631;28;20496;-68
2023/11/03 18:35:50;;;;;;;12.23;1.40;;;;;;;10.23;63.99;97904.59;10441119;28;20124;-66
2023/11/03 18:40:51;;;;;;;7.43;2.15;;;;;;;10.20;64.27;97898.88;10442039;28;20048;-66
2023/11/03 18:45:53;;;;;;;7.63;1.45;;;;;;;10.18;64.41;97890.25;10438836;28;20057;-65
2023/11/03 18:50:55;;;;;;;6.25;0.95;;;;;;;10.08;64.59;97894.31;10440889;28;20059;-65
2023/11/03 18:56:18;;;;;;;5.13;1.35;;;;;;;10.09;64.50;97906.72;10438384;28;20780;-66
2023/11/03 19:01:42;;;;;;;9.00;1.73;;;;;;;10.04;65.03;97911.13;10422368;28;20075;-66
2023/11/03 19:07:06;;;;;;;5.32;1.70;;;;;;;10.03;64.65;97910.31;10438689;28;20447;-63
2023/11/03 19:12:27;;;;;;;6.75;2.63;;;;;;;9.96;64.85;97922.22;10436105;28;20053;-68
2023/11/03 19:17:29;;;;;;;11.90;1.95;;;;;;;9.93;65.22;97926.16;10398698;28;20038;-67
2023/11/03 19:22:30;;;;;;;6.47;1.67;;;;;;;9.86;65.31;97930.84;10400126;28;20057;-66
2023/11/03 19:27:35;;;;;;;12.27;2.33;;;;;;;9.82;65.61;97932.34;10400605;28;20509;-67
2023/11/03 19:32:36;;;;;;;7.65;2.08;;;;;;;9.77;65.42;97938.38;10413283;28;20037;-67
2023/11/03 19:37:41;;;;;;;17.05;1.77;;;;;;;9.71;65.68;97950.84;10376290;28;20050;-68
2023/11/03 19:42:43;;;;;;;13.23;1.75;;;;;;;9.70;65.89;97956.47;10382365;28;20068;-68
2023/11/03 19:47:44;;;;;;;7.90;1.40;;;;;;;9.71;65.77;97961.59;10387980;28;20049;-67
2023/11/03 19:52:46;;;;;;;6.25;1.50;;;;;;;9.66;65.61;97957.97;10380133;28;20064;-66
2023/11/03 19:57:48;;;;;;;4.72;1.30;;;;;;;9.63;65.91;97953.06;10397021;28;20093;-68
2023/11/03 20:02:50;;;;;;;6.68;1.40;;;;;;;9.57;66.10;97959.34;10396383;28;20045;-68
2023/11/03 20:07:52;;;;;;;8.07;1.60;;;;;;;9.52;66.30;97955.50;10388152;28;20492;-67
2023/11/03 20:12:54;;;;;;;5.82;1.10;;;;;;;9.52;66.29;97963.53;10373391;28;20049;-69
2023/11/03 20:17:55;;;;;;;4.90;1.05;;;;;;;9.57;66.17;97964.72;10406540;28;20041;-70
2023/11/03 20:22:59;;;;;;;7.47;1.83;;;;;;;9.55;66.18;97966.81;10361166;28;20046;-66
2023/11/03 20:28:01;;;;;;;4.57;1.27;;;;;;;9.56;66.38;97957.69;10399098;28;20140;-68
2023/11/03 20:33:04;;;;;;;8.63;1.20;;;;;;;9.53;65.86;97965.16;10396785;28;20048;-66
2023/11/03 20:38:06;;;;;;;8.50;1.38;;;;;;;9.54;66.29;97963.31;10406040;28;20053;-67
2023/11/03 20:43:11;;;;;;;9.02;1.75;;;;;;;9.50;66.28;97965.63;10393046;28;20053;-69
2023/11/03 20:48:13;;;;;;;3.72;1.00;;;;;;;9.52;66.35;97971.56;10387917;28;20055;-68
2023/11/03 20:53:17;;;;;;;8.48;1.20;;;;;;;9.56;65.77;97974.63;10387629;28;20136;-67
2023/11/03 20:58:18;;;;;;;4.65;1.05;;;;;;;9.53;66.29;97970.50;10380678;28;20055;-66
2023/11/03 21:03:20;;;;;;;6.75;1.00;;;;;;;9.48;66.44;97977.63;10399955;28;20502;-66
2023/11/03 21:08:22;;;;;;;9.43;1.83;;;;;;;9.44;66.46;97977.25;10413751;28;20045;-66
2023/11/03 21:13:26;;;;;;;5.55;0.90;;;;;;;9.40;66.43;97965.38;10376333;28;20437;-65
2023/11/03 21:18:27;;;;;;;9.63;2.45;;;;;;;9.37;67.12;97973.84;10431919;28;20103;-66
2023/11/03 21:23:29;;;;;;;5.18;1.00;;;;;;;9.38;66.84;97967.44;10432388;28;20045;-66
2023/11/03 21:28:30;;;;;;;7.10;0.93;;;;;;;9.29;67.05;97974.97;10427506;28;20454;-66
2023/11/03 21:33:32;;;;;;;17.02;1.33;;;;;;;9.34;67.06;97979.69;10445374;28;20041;-66
2023/11/03 21:38:33;;;;;;;5.43;0.98;;;;;;;9.35;67.04;97978.63;10413014;28;20475;-66
2023/11/03 21:43:35;;;;;;;5.25;1.27;;;;;;;9.32;66.57;97979.06;10423100;28;20423;-66
2023/11/03 21:48:37;;;;;;;4.45;0.90;;;;;;;9.28;67.04;97972.50;10399508;28;20095;-67
2023/11/03 21:53:39;;;;;;;9.25;1.33;;;;;;;9.26;66.89;97979.97;10431531;28;20053;-65
2023/11/03 21:58:41;;;;;;;5.38;1.30;;;;;;;9.28;66.75;97970.69;10422303;28;20037;-66
2023/11/03 22:03:43;;;;;;;9.32;1.17;;;;;;;9.24;66.76;97974.00;10439759;28;20128;-66
2023/11/03 22:08:47;;;;;;;5.15;1.15;;;;;;;9.20;66.50;97979.03;10410491;28;20041;-66
2023/11/03 22:13:57;;;;;;;5.00;0.70;;;;;;;9.13;66.89;97980.97;10423679;28;20496;-64
2023/11/03 22:18:59;;;;;;;5.53;1.15;;;;;;;9.07;66.95;97980.00;10409502;28;20100;-67
2023/11/03 22:24:03;;;;;;;6.45;1.38;;;;;;;9.00;66.88;97989.16;10435058;28;20554;-65
2023/11/03 22:29:06;;;;;;;3.38;1.58;;;;;;;8.89;67.16;97980.84;10429511;28;20131;-66
2023/11/03 22:34:08;;;;;;;4.95;1.20;;;;;;;8.82;67.13;97979.28;10413512;28;20053;-65
2023/11/03 22:39:10;;;;;;;4.00;1.23;;;;;;;8.71;67.55;97989.69;10402584;28;20396;-66
2023/11/03 22:44:12;;;;;;;6.45;1.50;;;;;;;8.61;67.40;97997.41;10407485;28;20446;-66
2023/11/03 22:49:13;;;;;;;5.03;1.15;;;;;;;8.57;67.92;97996.22;10408837;28;20041;-67
2023/11/03 22:54:15;;;;;;;8.57;1.23;;;;;;;8.51;67.46;98005.13;10402660;28;20056;-67
2023/11/03 22:59:17;;;;;;;9.15;1.88;;;;;;;8.49;67.91;97999.16;10416349;28;20048;-66
2023/11/03 23:04:19;;;;;;;5.60;1.30;;;;;;;8.45;67.53;98001.50;10424985;28;20043;-67
2023/11/03 23:09:22;;;;;;;5.80;1.92;;;;;;;8.38;67.96;97998.00;10402056;28;20041;-66
2023/11/03 23:14:23;;;;;;;9.57;2.13;;;;;;;8.30;67.80;97999.13;10387580;28;20164;-64
2023/11/03 23:19:26;;;;;;;5.57;1.90;;;;;;;8.25;67.97;98009.63;10376146;28;20041;-64
2023/11/03 23:24:28;;;;;;;7.97;1.80;;;;;;;8.18;67.99;98014.25;10390451;28;20056;-64
2023/11/03 23:29:29;;;;;;;12.10;3.28;;;;;;;8.17;68.32;98015.28;10397302;28;20546;-64
2023/11/03 23:34:31;;;;;;;6.97;2.97;;;;;;;8.21;67.83;98011.13;10394102;28;20053;-64